createdAt,value
2022-11-03T00:00:12.626Z,89.59
2022-11-03T00:02:47.182Z,89.86
2022-11-03T00:05:38.638Z,89.97
2022-11-03T00:10:45.300Z,90.12
2022-11-03T00:13:18.060Z,90.47
2022-11-03T00:15:51.440Z,90.43
2022-11-03T00:18:24.222Z,90.58
2022-11-03T00:21:03.177Z,91.01
2022-11-03T00:23:37.905Z,91.29
2022-11-03T00:26:28.026Z,91.44
2022-11-03T00:29:03.263Z,91.76
2022-11-03T00:31:39.145Z,91.96
2022-11-03T00:34:11.975Z,92.09
2022-11-03T00:36:45.786Z,92.65
2022-11-03T00:39:18.448Z,92.84
2022-11-03T00:41:52.412Z,93.01
2022-11-03T00:44:25.347Z,93.11
2022-11-03T00:46:59.429Z,93.47
2022-11-03T00:49:31.988Z,94.00
2022-11-03T00:52:04.437Z,94.49
2022-11-03T00:54:37.362Z,94.86
2022-11-03T00:57:09.835Z,94.92
2022-11-03T00:59:42.206Z,95.00
2022-11-03T01:02:14.792Z,95.02
2022-11-03T01:05:05.685Z,95.25
2022-11-03T01:07:38.781Z,95.09
2022-11-03T01:10:11.996Z,95.06
2022-11-03T01:12:44.490Z,95.12
2022-11-03T01:15:17.640Z,94.67
2022-11-03T01:17:50.352Z,94.40
2022-11-03T01:20:23.395Z,94.28
2022-11-03T01:22:55.827Z,94.38
2022-11-03T01:25:27.545Z,94.31
2022-11-03T01:28:00.257Z,94.45
2022-11-03T01:30:33.094Z,94.46
2022-11-03T01:33:05.866Z,94.44
2022-11-03T01:35:38.325Z,94.50
2022-11-03T01:38:10.832Z,94.60
2022-11-03T01:40:43.508Z,94.70
2022-11-03T01:43:23.021Z,95.07
2022-11-03T01:46:06.578Z,95.31
2022-11-03T01:48:47.494Z,95.75
2022-11-03T01:51:22.165Z,96.08
2022-11-03T01:53:55.302Z,96.42
2022-11-03T01:56:27.696Z,96.64
2022-11-03T01:59:00.209Z,97.12
2022-11-03T02:01:33.265Z,97.08
2022-11-03T02:04:10.131Z,97.34
2022-11-03T02:06:44.128Z,97.82
2022-11-03T02:09:16.660Z,98.14
2022-11-03T02:12:07.795Z,98.40
2022-11-03T02:14:54.335Z,98.76
2022-11-03T02:17:27.473Z,98.93
2022-11-03T02:20:08.910Z,99.08
2022-11-03T02:23:06.217Z,99.19
2022-11-03T02:25:56.281Z,99.22
2022-11-03T02:28:31.704Z,99.25
2022-11-03T02:31:32.689Z,99.35
2022-11-03T02:34:12.933Z,99.45
2022-11-03T02:37:08.692Z,99.55
2022-11-03T02:40:06.250Z,99.31
2022-11-03T02:42:39.131Z,99.27
2022-11-03T02:45:17.288Z,99.11
2022-11-03T02:47:48.894Z,98.89
2022-11-03T02:50:23.063Z,98.54
2022-11-03T02:52:55.593Z,98.36
2022-11-03T02:56:02.613Z,98.33
2022-11-03T02:58:49.195Z,98.37
2022-11-03T03:01:36.181Z,98.39
2022-11-03T03:04:10.414Z,98.22
2022-11-03T03:06:45.208Z,98.14
2022-11-03T03:09:25.603Z,97.86
2022-11-03T03:11:58.188Z,97.92
2022-11-03T03:14:34.708Z,97.91
2022-11-03T03:17:17.516Z,98.01
2022-11-03T03:20:11.081Z,98.19
2022-11-03T03:23:09.051Z,98.32
2022-11-03T03:25:54.305Z,98.81
2022-11-03T03:28:37.664Z,99.34
2022-11-03T03:31:13.333Z,99.57
2022-11-03T03:33:47.950Z,99.88
2022-11-03T03:36:21.057Z,100.00
2022-11-03T03:39:00.084Z,100.00
2022-11-03T03:41:33.364Z,100.00
2022-11-03T03:44:07.723Z,100.00
2022-11-03T03:46:52.836Z,100.00
2022-11-03T03:49:25.591Z,100.00
2022-11-03T03:51:58.615Z,100.00
2022-11-03T03:54:31.253Z,100.00
2022-11-03T03:57:06.137Z,100.00
2022-11-03T03:59:37.764Z,100.00
2022-11-03T04:02:10.670Z,100.00
2022-11-03T04:04:44.126Z,100.00
2022-11-03T04:07:39.321Z,100.00
2022-11-03T04:10:10.373Z,100.00
2022-11-03T04:13:02.450Z,100.00
2022-11-03T04:15:53.674Z,100.00
2022-11-03T04:18:45.763Z,100.00
2022-11-03T04:21:36.008Z,100.00
2022-11-03T04:24:08.643Z,100.00
2022-11-03T04:26:40.949Z,100.00
2022-11-03T04:29:13.478Z,100.00
2022-11-03T04:31:46.059Z,100.00
2022-11-03T04:34:18.646Z,100.00
2022-11-03T04:36:51.097Z,100.00
2022-11-03T04:39:23.500Z,100.00
2022-11-03T04:41:56.096Z,100.00
2022-11-03T04:44:28.810Z,100.00
2022-11-03T04:47:01.430Z,100.00
2022-11-03T04:49:33.896Z,100.00
2022-11-03T04:52:09.752Z,100.00
2022-11-03T04:54:42.710Z,100.00
2022-11-03T04:57:15.928Z,100.00
2022-11-03T04:59:53.875Z,100.00
2022-11-03T05:02:26.480Z,100.00
2022-11-03T05:04:58.856Z,100.00
2022-11-03T05:07:36.804Z,100.00
2022-11-03T05:10:12.854Z,100.00
2022-11-03T05:12:45.424Z,100.00
2022-11-03T05:15:35.404Z,100.00
2022-11-03T05:18:33.437Z,100.00
2022-11-03T05:21:12.513Z,100.00
2022-11-03T05:23:56.379Z,100.00
2022-11-03T05:26:35.971Z,100.00
2022-11-03T05:29:19.665Z,100.00
2022-11-03T05:31:55.331Z,100.00
2022-11-03T05:34:49.825Z,100.00
2022-11-03T05:37:30.611Z,100.00
2022-11-03T05:40:24.962Z,100.00
2022-11-03T05:43:02.549Z,100.00
2022-11-03T05:45:36.285Z,100.00
2022-11-03T05:48:40.275Z,100.00
2022-11-03T05:51:25.629Z,100.00
2022-11-03T05:54:00.343Z,100.00
2022-11-03T05:56:33.326Z,100.00
2022-11-03T05:59:06.574Z,100.00
2022-11-03T06:01:40.006Z,100.00
2022-11-03T06:04:37.582Z,100.00
2022-11-03T06:07:27.611Z,100.00
2022-11-03T06:10:01.547Z,100.00
2022-11-03T06:12:34.162Z,100.00
2022-11-03T06:15:11.157Z,100.00
2022-11-03T06:17:43.680Z,100.00
2022-11-03T06:20:21.676Z,100.00
2022-11-03T06:22:56.320Z,100.00
2022-11-03T06:25:37.447Z,100.00
2022-11-03T06:28:14.877Z,100.00
2022-11-03T06:30:48.084Z,100.00
2022-11-03T06:33:29.494Z,100.00
2022-11-03T06:36:21.118Z,100.00
2022-11-03T06:38:58.362Z,100.00
2022-11-03T06:41:39.706Z,100.00
2022-11-03T06:44:27.185Z,100.00
2022-11-03T06:47:07.407Z,100.00
2022-11-03T06:49:41.272Z,100.00
2022-11-03T06:52:35.039Z,100.00
2022-11-03T06:55:29.722Z,100.00
2022-11-03T06:58:21.684Z,100.00
2022-11-03T07:00:57.715Z,100.00
2022-11-03T07:03:31.614Z,100.00
2022-11-03T07:06:27.781Z,100.00
2022-11-03T07:09:09.973Z,100.00
2022-11-03T10:42:06.482Z,100.00
2022-11-03T10:44:38.884Z,100.00
2022-11-03T10:47:18.110Z,100.00
2022-11-03T10:49:50.984Z,100.00
2022-11-03T10:52:30.045Z,100.00
2022-11-03T10:55:02.703Z,100.00
2022-11-03T10:57:35.196Z,100.00
2022-11-03T11:00:09.763Z,100.00
2022-11-03T11:02:43.891Z,100.00
2022-11-03T11:05:24.301Z,100.00
2022-11-03T11:07:58.289Z,100.00
2022-11-03T11:10:32.474Z,100.00
2022-11-03T11:13:24.551Z,100.00
2022-11-03T11:16:01.771Z,100.00
2022-11-03T11:18:42.023Z,100.00
2022-11-03T11:21:26.487Z,100.00
2022-11-03T11:23:59.090Z,100.00
2022-11-03T11:26:36.109Z,100.00
2022-11-03T11:29:16.453Z,100.00
2022-11-03T11:31:57.748Z,100.00
2022-11-03T11:34:39.910Z,100.00
2022-11-03T11:37:17.859Z,100.00
2022-11-03T11:39:50.778Z,100.00
2022-11-03T11:42:23.386Z,100.00
2022-11-03T11:45:02.629Z,100.00
2022-11-03T11:47:47.339Z,100.00
2022-11-03T11:50:23.950Z,100.00
2022-11-03T11:53:02.957Z,100.00
2022-11-03T11:55:49.297Z,100.00
2022-11-03T11:58:42.892Z,100.00
2022-11-03T12:01:34.317Z,100.00
2022-11-03T12:04:21.129Z,100.00
2022-11-03T12:06:53.563Z,100.00
2022-11-03T12:09:28.425Z,100.00
2022-11-03T12:12:08.349Z,100.00
2022-11-03T12:14:38.977Z,100.00
2022-11-03T12:17:23.461Z,100.00
2022-11-03T12:19:56.829Z,100.00
2022-11-03T12:22:41.810Z,100.00
2022-11-03T12:25:39.402Z,100.00
2022-11-03T12:28:11.719Z,100.00
2022-11-03T12:30:44.954Z,100.00
2022-11-03T12:33:17.452Z,100.00
2022-11-03T12:35:49.989Z,100.00
2022-11-03T12:38:22.482Z,100.00
2022-11-03T12:40:55.102Z,100.00
2022-11-03T12:43:27.842Z,100.00
2022-11-03T12:46:00.353Z,100.00
2022-11-03T12:48:33.079Z,100.00
2022-11-03T12:51:05.525Z,100.00
2022-11-03T12:53:37.917Z,100.00
2022-11-03T12:56:11.348Z,100.00
2022-11-03T12:58:45.596Z,100.00
2022-11-03T13:01:19.017Z,100.00
2022-11-03T13:03:51.871Z,100.00
2022-11-03T13:06:24.536Z,100.00
2022-11-03T13:08:58.740Z,100.00
2022-11-03T13:11:49.287Z,100.00
2022-11-03T13:14:21.798Z,100.00
2022-11-03T13:16:55.207Z,100.00
2022-11-03T13:19:27.809Z,100.00
2022-11-03T13:22:01.908Z,100.00
2022-11-03T13:24:34.359Z,100.00
2022-11-03T13:27:06.676Z,100.00
2022-11-03T13:29:39.695Z,100.00
2022-11-03T13:32:11.991Z,100.00
2022-11-03T13:34:45.055Z,100.00
2022-11-03T13:37:17.517Z,100.00
2022-11-03T13:39:50.054Z,100.00
2022-11-03T13:42:22.537Z,100.00
2022-11-03T13:47:41.988Z,100.00
2022-11-03T13:50:19.938Z,100.00
2022-11-03T13:52:39.699Z,100.00
2022-11-03T14:00:22.726Z,100.00
2022-11-03T14:05:29.935Z,100.00
2022-11-03T14:08:02.670Z,100.00
2022-11-03T14:10:36.787Z,100.00
2022-11-03T14:13:10.079Z,100.00
2022-11-03T14:15:42.815Z,100.00
2022-11-03T14:18:15.394Z,100.00
2022-11-03T14:20:49.524Z,100.00
2022-11-03T14:23:22.484Z,100.00
2022-11-03T14:26:06.418Z,100.00
2022-11-03T14:28:30.084Z,100.00
2022-11-03T14:31:04.585Z,100.00
2022-11-03T14:33:37.058Z,100.00
2022-11-03T14:36:09.681Z,100.00
2022-11-03T14:38:46.245Z,100.00
2022-11-03T14:41:34.740Z,100.00
2022-11-03T14:44:07.139Z,100.00
2022-11-03T14:46:39.534Z,100.00
2022-11-03T14:49:16.865Z,100.00
2022-11-03T14:51:49.885Z,100.00
2022-11-03T14:54:23.152Z,100.00
2022-11-03T14:56:55.930Z,100.00
2022-11-03T14:59:28.696Z,100.00
2022-11-03T15:02:01.818Z,100.00
2022-11-03T15:04:34.684Z,100.00
2022-11-03T15:07:08.377Z,100.00
2022-11-03T15:09:40.676Z,100.00
2022-11-03T15:12:14.298Z,100.00
2022-11-03T15:14:46.903Z,100.00
2022-11-03T15:17:19.533Z,100.00
2022-11-03T15:19:52.323Z,100.00
2022-11-03T15:25:16.010Z,100.00
2022-11-03T15:27:33.181Z,100.00
2022-11-03T15:30:07.980Z,100.00
2022-11-03T15:35:25.755Z,100.00
2022-11-03T15:37:59.304Z,100.00
2022-11-03T15:40:32.503Z,100.00
2022-11-03T15:43:06.299Z,100.00
2022-11-03T15:45:39.995Z,100.00
2022-11-03T15:48:12.867Z,100.00
2022-11-03T15:50:45.732Z,100.00
2022-11-03T15:53:18.206Z,100.00
2022-11-03T15:55:50.823Z,100.00
2022-11-03T15:58:23.698Z,100.00
2022-11-03T19:27:20.065Z,100.00
2022-11-03T19:29:52.645Z,100.00
2022-11-03T19:32:32.536Z,100.00
2022-11-03T19:35:11.648Z,100.00
2022-11-03T19:38:03.404Z,100.00
2022-11-03T19:40:36.422Z,100.00
2022-11-03T19:43:12.003Z,100.00
2022-11-03T19:45:44.934Z,100.00
2022-11-03T19:48:25.262Z,100.00
2022-11-03T19:50:51.814Z,100.00
2022-11-03T19:53:28.053Z,100.00
2022-11-03T19:56:01.521Z,100.00
2022-11-03T19:58:34.651Z,100.00
2022-11-03T20:01:08.738Z,100.00
2022-11-03T20:03:42.198Z,100.00
2022-11-03T20:06:19.113Z,100.00
2022-11-03T20:08:49.487Z,100.00
2022-11-03T20:11:22.510Z,100.00
2022-11-03T20:13:54.956Z,100.00
2022-11-03T20:16:29.464Z,100.00
2022-11-03T20:19:02.023Z,100.00
2022-11-03T20:21:34.715Z,100.00
2022-11-03T20:24:08.711Z,100.00
2022-11-03T20:26:41.190Z,100.00
2022-11-03T20:29:15.735Z,100.00
2022-11-03T20:31:48.694Z,100.00
2022-11-03T20:36:55.143Z,100.00
2022-11-03T20:39:27.658Z,100.00
2022-11-03T20:42:25.660Z,100.00
2022-11-03T20:44:59.345Z,100.00
2022-11-03T20:47:32.799Z,100.00
2022-11-03T20:50:05.305Z,100.00
2022-11-03T20:52:52.382Z,100.00
2022-11-03T20:55:29.770Z,100.00
2022-11-03T21:00:54.063Z,100.00
2022-11-03T21:06:13.633Z,100.00
2022-11-03T21:08:47.530Z,100.00
2022-11-03T21:11:29.459Z,100.00
2022-11-03T21:14:27.791Z,100.00
2022-11-03T21:17:18.559Z,100.00
2022-11-03T21:20:01.514Z,100.00
2022-11-03T21:22:52.378Z,100.00
2022-11-03T21:25:22.034Z,100.00
2022-11-03T21:27:56.072Z,100.00
2022-11-03T21:30:28.381Z,100.00
2022-11-03T21:33:00.932Z,100.00
2022-11-03T21:35:34.044Z,100.00
2022-11-03T21:38:07.854Z,100.00
2022-11-03T21:40:56.125Z,100.00
2022-11-03T21:43:42.663Z,100.00
2022-11-03T21:46:15.860Z,100.00
2022-11-03T21:49:06.789Z,100.00
2022-11-03T21:51:39.178Z,100.00
2022-11-03T21:54:11.871Z,100.00
2022-11-03T21:56:44.316Z,100.00
2022-11-03T21:59:16.963Z,100.00
2022-11-03T22:01:53.793Z,100.00
2022-11-03T22:04:26.408Z,100.00
2022-11-03T22:06:59.816Z,100.00
2022-11-03T22:09:32.726Z,100.00
2022-11-03T22:12:06.231Z,100.00
2022-11-03T22:14:57.617Z,100.00
2022-11-03T22:17:30.090Z,100.00
2022-11-03T22:20:21.737Z,100.00
2022-11-03T22:23:12.098Z,100.00
2022-11-03T22:28:48.971Z,100.00
2022-11-03T22:31:39.480Z,100.00
2022-11-03T22:34:29.504Z,100.00
2022-11-03T22:37:01.913Z,100.00
2022-11-03T22:39:52.973Z,100.00
2022-11-03T22:45:35.202Z,100.00
2022-11-03T22:48:08.065Z,100.00
2022-11-03T22:50:41.033Z,100.00
2022-11-03T22:53:31.179Z,100.00
2022-11-03T22:56:03.653Z,100.00
2022-11-03T22:58:36.080Z,100.00
2022-11-03T23:01:12.195Z,100.00
2022-11-03T23:03:46.074Z,100.00
2022-11-03T23:06:20.721Z,100.00
2022-11-03T23:08:54.641Z,100.00
2022-11-03T23:11:30.799Z,100.00
2022-11-03T23:14:06.185Z,100.00
2022-11-03T23:16:43.981Z,100.00
2022-11-03T23:19:35.138Z,100.00
2022-11-03T23:22:08.493Z,100.00
2022-11-03T23:24:58.822Z,100.00
2022-11-03T23:27:31.679Z,100.00
2022-11-03T23:30:04.113Z,100.00
2022-11-03T23:32:36.787Z,100.00
2022-11-03T23:35:10.682Z,100.00
2022-11-03T23:37:43.297Z,100.00
2022-11-03T23:40:18.782Z,100.00
2022-11-03T23:42:50.418Z,100.00
2022-11-03T23:45:40.458Z,100.00
2022-11-03T23:48:31.171Z,100.00
2022-11-03T23:51:04.909Z,100.00
2022-11-03T23:53:37.885Z,100.00
2022-11-03T23:56:28.318Z,100.00
2022-11-03T23:59:00.706Z,100.00
